Date,TemperatureHighF,TemperatureAvgF,TemperatureLowF,DewpointHighF,DewpointAvgF,DewpointLowF,HumidityHigh,HumidityAvg,HumidityLow,PressureMaxIn,PressureMinIn,WindSpeedMaxMPH,WindSpeedAvgMPH,GustSpeedMaxMPH,PrecipitationSumIn
2012-1-1,36.5,27.6,19.0,31.8,16.7,4.3,89,64,51,30.28,29.71,10,3,21,24.14
2012-1-2,23.0,18.7,10.6,5.0,1.5,-2.3,58,47,39,30.49,30.27,11,4,20,0.00
2012-1-3,29.5,18.4,10.6,15.9,4.5,-1.0,68,55,41,30.48,29.83,5,1,9,0.00
2012-1-4,42.8,31.4,25.0,25.8,21.3,15.9,80,67,49,30.06,29.85,4,0,5,0.02
2012-1-5,46.4,35.7,23.5,34.2,27.3,18.3,85,72,56,29.93,29.54,4,0,6,0.01
2012-1-6,50.4,42.7,37.0,31.1,27.5,22.5,65,55,42,29.81,29.53,6,2,11,0.01
2012-1-7,75.2,31.3,24.4,60.3,19.3,13.3,77,61,48,30.18,29.81,5,1,12,24.18
2012-1-8,44.4,32.1,18.5,27.0,21.9,11.6,82,67,48,30.26,30.02,4,1,7,0.00
2012-1-9,51.4,39.0,29.1,28.2,24.1,19.8,73,56,40,30.02,29.80,6,2,11,0.00
2012-1-10,56.1,38.3,26.2,33.9,27.0,18.7,79,65,41,29.93,29.63,4,1,8,0.00
2012-1-11,38.1,23.8,12.9,33.1,12.9,-0.9,82,63,50,29.86,29.61,8,4,16,0.02
2012-1-12,14.0,11.9,9.7,0.9,-1.6,-4.7,60,53,49,29.88,29.78,11,3,16,0.00
2012-1-13,36.5,11.4,8.2,1.5,-1.0,-11.0,62,56,32,30.04,29.87,5,1,9,24.20
2012-1-14,20.8,14.6,6.1,13.3,3.8,-99.9,72,62,50,30.09,29.99,5,1,84,24.20
2012-1-15,43.0,29.5,20.1,24.7,18.9,13.3,78,65,44,30.10,29.66,7,2,17,0.01
2012-1-16,32.7,28.5,24.1,23.0,17.6,5.9,78,64,42,29.87,29.66,9,2,13,0.00
2012-1-17,24.1,12.5,4.6,5.9,-4.1,-9.5,64,46,31,30.29,29.87,8,2,14,24.22
2012-1-18,28.2,10.5,-2.0,15.7,-4.0,-18.3,70,50,40,30.25,29.65,11,2,16,24.22
2012-1-19,78.4,-2.7,-11.7,31.8,-23.3,-26.7,83,32,22,30.24,29.86,12,2,13,24.22
2012-1-20,14.9,6.1,1.0,-2.1,-10.6,-22.5,62,44,27,30.27,30.14,2,0,4,0.00
2012-1-21,21.4,10.9,-0.8,12.5,-1.0,-11.4,68,57,41,30.27,29.76,8,1,21,0.00
2012-1-22,26.1,23.3,20.3,20.8,15.7,11.3,80,72,63,29.77,29.52,4,2,12,24.22
2012-1-23,26.1,22.9,20.3,20.8,14.7,11.6,80,70,66,29.90,29.52,0,0,1,0.00
2012-1-24,26.8,21.2,13.3,16.4,12.0,5.0,72,67,61,30.27,29.90,2,0,3,0.00
2012-1-25,37.4,29.2,23.7,25.2,20.3,16.2,75,69,55,30.27,29.84,6,1,9,0.03
2012-1-26,46.2,35.3,25.9,28.1,23.3,14.3,81,62,49,29.84,29.60,7,1,11,0.11
2012-1-27,35.8,27.6,19.0,29.8,17.7,8.5,81,66,44,29.91,29.66,8,1,15,0.04
2012-1-28,31.8,24.2,18.0,15.8,10.5,6.0,74,56,42,29.97,29.88,5,2,8,0.00
2012-1-29,28.4,19.1,11.7,15.3,3.3,-2.2,73,50,30,30.17,29.94,4,1,9,0.00
2012-1-30,51.1,32.6,19.0,28.8,19.7,5.2,76,59,41,29.95,29.56,5,1,10,0.01
2012-1-31,51.6,36.7,28.6,33.9,27.7,22.6,81,70,50,29.94,29.49,8,1,11,0.00
2012-2-1,36.3,33.2,30.6,30.7,27.8,25.0,84,80,75,30.07,29.95,3,0,4,0.00
2012-2-2,37.6,33.7,30.9,32.1,28.8,27.2,86,82,73,30.38,30.06,4,0,5,0.00
2012-2-3,34.9,31.7,27.3,27.5,25.7,20.5,83,78,70,30.47,30.38,6,1,8,0.00
2012-2-4,40.3,29.2,24.4,28.1,22.9,19.7,84,77,61,30.43,30.28,4,1,8,0.00
2012-2-5,31.3,28.7,27.5,24.0,22.3,20.3,82,77,73,30.34,30.27,4,1,7,0.00
2012-2-7,32.9,23.7,14.0,11.8,4.5,-4.3,51,43,37,30.51,30.45,6,2,10,0.00
2012-2-8,37.8,22.7,10.8,4.3,-2.4,-6.5,50,34,20,30.51,30.22,4,1,5,0.00
2012-2-9,42.4,28.3,16.0,22.2,11.0,-3.0,62,48,36,30.23,29.82,6,2,14,0.00
2012-2-10,30.7,13.5,5.5,16.1,-9.5,-21.2,54,33,20,30.54,29.91,10,5,19,0.00
2012-2-11,24.1,14.2,7.2,-6.3,-13.2,-21.2,42,26,20,30.55,30.49,7,2,11,0.00
2012-2-12,36.3,20.4,6.4,-0.5,-5.3,-9.4,47,32,20,30.49,30.06,5,1,8,0.00
2012-2-13,33.4,24.1,16.3,21.7,8.3,-5.9,75,52,32,30.06,29.70,3,0,9,0.00
2012-2-14,36.7,30.4,23.2,24.6,21.8,17.0,78,70,56,29.74,29.65,4,1,8,0.05
2012-2-15,44.8,32.4,21.4,28.4,23.0,14.7,79,69,47,29.95,29.74,2,0,4,0.00
2012-2-16,43.0,39.4,34.9,27.8,23.6,20.4,75,54,42,30.05,29.95,6,2,10,0.01
2012-2-17,46.0,39.4,32.7,26.1,20.8,16.6,54,47,40,30.08,29.92,7,3,11,0.00
2012-2-18,43.2,32.1,17.4,18.1,12.9,5.7,64,46,31,30.22,30.07,4,1,8,0.00
2012-2-19,49.8,33.6,15.8,21.1,15.7,6.2,72,50,26,30.14,29.96,4,1,9,0.00
2012-2-20,45.7,34.8,27.5,28.2,20.1,15.1,85,57,32,30.06,29.60,7,2,17,0.00
2012-2-21,38.5,33.3,28.9,31.6,24.7,19.0,86,71,61,29.59,29.45,7,3,14,0.35
2012-2-22,43.3,30.5,19.9,24.1,17.3,12.7,75,59,41,29.52,29.36,4,1,8,0.07
2012-2-23,43.0,35.3,29.8,24.2,20.6,17.2,62,55,45,29.67,29.39,6,1,8,0.00
2012-2-24,32.2,24.9,14.2,22.1,10.1,-1.5,77,54,38,30.07,29.66,11,2,20,24.89
2012-2-25,32.0,20.7,10.6,15.4,4.1,-38.8,70,49,35,30.23,29.93,4,1,9,24.89
2012-2-26,38.5,30.0,25.7,27.0,15.9,9.5,70,56,45,30.03,29.56,13,4,17,24.89
2012-2-27,35.4,26.3,21.0,15.6,11.8,8.7,68,54,39,30.40,29.98,5,2,10,1.06
2012-2-28,33.1,30.2,25.0,27.1,20.0,11.4,82,66,50,30.34,29.81,7,1,14,0.17
2012-2-29,33.6,33.2,32.0,29.9,28.9,27.1,86,84,82,29.81,29.18,0,0,0,0.45
2012-3-1,33.6,33.6,33.6,29.9,29.9,29.9,86,86,86,29.20,29.20,0,0,0,0.00
2012-3-2,45.0,34.1,27.5,35.9,23.3,17.5,86,65,47,29.67,29.20,8,2,13,0.58
2012-3-3,30.6,22.6,15.8,18.3,10.1,2.1,71,58,47,29.86,29.55,9,2,14,0.00
2012-3-4,35.6,21.6,6.8,12.0,5.3,-4.0,63,50,33,30.09,29.84,4,1,8,0.00
2012-3-5,40.8,26.8,14.5,23.9,15.1,6.2,74,61,49,30.20,29.82,6,1,11,0.00
2012-3-6,63.3,48.7,31.6,43.9,33.4,22.5,80,57,37,29.81,29.43,4,1,8,0.00
2012-3-7,54.3,41.2,25.9,44.2,33.2,10.7,88,73,35,29.94,29.46,8,2,13,26.14
2012-3-8,42.1,29.5,20.8,22.3,13.4,-7.6,70,52,22,30.38,29.95,9,3,23,0.00
2012-3-9,38.8,27.9,14.9,15.6,3.3,-6.4,47,35,21,30.59,30.10,6,2,11,0.00
2012-3-10,69.8,53.1,33.8,35.3,26.6,15.2,54,37,22,30.09,29.79,9,3,14,0.00
2012-3-11,70.9,56.9,46.0,44.1,33.7,28.0,60,42,25,29.91,29.69,5,2,9,0.00
2012-3-12,54.1,48.9,44.8,51.3,46.1,39.1,99,91,60,29.81,29.55,4,1,11,0.01
2012-3-13,70.2,52.2,33.4,44.9,37.4,31.9,99,62,27,29.99,29.75,5,1,9,0.00
2012-3-14,77.7,62.1,49.5,51.6,46.0,26.8,87,58,33,29.82,29.65,6,1,7,0.00
2012-3-15,66.4,54.1,42.3,36.8,27.1,17.7,69,37,24,29.98,29.82,6,1,11,0.00
2012-3-16,84.2,62.8,42.4,60.7,48.9,36.0,82,63,41,29.92,29.66,4,1,8,0.00
2012-3-17,85.3,71.6,58.3,64.0,58.9,54.3,94,67,43,29.72,29.59,12,3,11,26.40
2012-3-18,84.4,75.3,69.3,60.2,58.9,56.8,73,58,43,29.66,29.56,8,2,14,0.00
2012-3-19,82.2,69.5,61.5,61.8,60.0,58.0,98,74,46,29.65,29.49,8,2,13,0.39
2012-3-20,66.0,61.5,57.4,61.7,55.7,52.1,98,82,65,29.85,29.59,4,1,8,0.02
2012-3-21,67.8,60.7,56.1,58.6,56.1,54.3,98,85,67,29.98,29.79,4,1,7,0.00
2012-3-22,72.1,61.6,56.7,63.2,59.1,56.4,99,92,67,29.99,29.85,5,1,9,0.14
2012-3-23,79.2,66.1,59.7,66.3,58.3,53.2,99,78,42,29.89,29.75,4,1,7,0.01
2012-3-24,73.4,60.8,52.2,57.6,53.8,48.8,98,79,52,29.96,29.81,5,1,11,0.00
2012-3-25,61.0,50.2,38.7,48.8,32.6,21.6,90,56,27,30.16,29.96,8,3,11,0.00
2012-3-26,50.0,41.1,37.0,31.1,28.0,22.0,77,60,33,30.26,29.85,10,4,22,0.04
2012-3-27,71.1,55.7,42.1,50.6,40.2,27.9,72,57,30,29.85,29.47,11,4,17,0.00
2012-3-28,59.2,48.0,39.7,39.8,35.4,32.1,81,63,41,30.02,29.74,7,2,12,0.00
2012-3-29,64.9,50.9,38.8,46.6,36.3,30.4,93,60,37,30.04,29.71,9,3,14,0.12
2012-3-30,57.9,47.0,40.3,46.1,41.8,37.8,93,82,62,29.82,29.70,6,1,11,0.00
2012-3-31,52.3,47.3,41.5,47.9,44.4,39.7,99,90,80,29.81,29.65,7,2,14,0.00
2012-4-1,70.2,56.2,46.9,47.6,43.9,37.5,92,68,32,29.67,29.47,13,3,17,27.12
2012-4-2,74.1,61.8,50.4,53.3,41.4,33.5,89,48,35,29.73,29.54,11,4,17,0.21
2012-4-3,68.5,55.1,46.8,53.1,36.1,20.8,92,56,20,30.03,29.71,10,4,19,0.09
2012-4-4,68.5,55.2,41.0,30.5,24.3,15.7,64,33,19,30.04,29.84,7,2,11,0.00
2012-4-5,64.2,52.1,42.1,32.3,25.8,16.9,66,38,20,30.11,29.93,7,2,11,0.00
2012-4-6,66.7,51.9,36.3,31.8,26.3,18.5,73,41,17,30.21,29.99,8,2,14,0.00
2012-4-7,61.5,50.6,45.7,51.2,35.8,27.8,99,60,35,30.06,29.94,11,2,17,0.14
2012-4-8,66.4,55.7,48.0,29.0,23.9,15.4,43,31,17,30.13,29.96,9,2,16,0.00
2012-4-9,50.4,43.6,33.3,26.0,20.1,14.9,50,39,29,30.13,30.00,11,3,17,0.00
2012-4-10,47.7,37.5,30.2,19.6,15.1,9.4,56,41,23,30.26,30.13,10,3,14,27.56
2012-4-11,60.3,40.6,28.0,25.2,19.3,12.8,62,44,22,30.36,30.15,3,1,5,0.00
2012-4-12,72.5,55.7,40.1,43.3,24.4,18.7,79,34,16,30.16,29.93,5,1,9,0.28
2012-4-13,72.5,57.3,47.7,49.2,44.4,34.4,97,67,35,29.95,29.66,11,3,17,0.03
2012-4-14,80.8,64.5,51.1,56.0,48.3,37.6,93,62,22,29.71,29.51,4,2,7,0.05
2012-4-15,77.2,62.9,49.6,65.9,54.3,49.4,99,75,62,29.52,29.08,4,0,6,0.89
2012-4-16,49.6,41.5,34.9,49.4,35.3,29.3,99,79,61,30.11,29.19,10,2,17,0.38
2012-4-17,64.0,51.0,39.4,47.8,35.6,29.4,90,57,38,30.22,29.92,5,1,9,0.20
2012-4-18,68.2,56.8,50.4,51.3,45.6,38.2,90,68,44,29.92,29.78,5,3,13,0.06
2012-4-19,52.2,47.5,43.3,38.2,35.9,29.0,81,65,42,29.98,29.87,7,4,13,0.01
2012-4-20,62.8,51.4,34.0,37.9,25.3,19.9,81,42,21,30.03,29.88,6,3,13,0.01
2012-4-21,62.8,55.0,43.9,43.6,32.1,22.3,94,52,21,29.93,29.84,4,3,7,29.42
2012-4-22,55.6,49.3,41.5,44.6,41.6,37.4,95,77,56,30.18,29.87,3,2,4,0.22
2012-4-23,71.2,53.9,36.1,44.0,38.4,33.4,99,62,30,30.17,29.77,4,1,8,29.64
2012-4-24,80.4,64.3,50.0,45.3,40.3,29.4,75,46,21,29.93,29.48,5,1,9,29.64
2012-4-25,79.2,67.4,52.0,52.8,47.9,42.7,73,51,39,29.52,29.46,6,2,8,29.66
2012-4-26,77.2,54.5,47.1,51.0,28.7,14.1,71,41,19,30.09,29.49,8,4,16,0.00
2012-4-27,58.1,52.2,43.7,29.1,22.1,19.1,49,31,25,30.14,29.94,8,2,15,0.00
2012-4-28,53.6,45.3,39.9,40.1,33.4,17.1,96,67,28,30.17,29.89,8,3,15,0.22
2012-4-29,61.5,52.1,44.4,46.6,41.5,38.9,92,69,49,30.18,29.96,7,2,11,0.07
2012-4-30,68.7,55.2,44.8,51.8,47.9,43.2,98,78,50,29.96,29.73,4,1,7,0.01
2012-5-1,54.1,54.1,54.1,51.0,51.0,51.0,89,89,89,29.75,29.75,0,0,1,0.00
2012-5-10,80.4,73.6,62.6,44.7,42.8,39.4,49,34,24,29.80,29.71,7,2,13,0.01
2012-5-11,74.7,63.0,51.1,55.9,49.3,31.2,99,63,21,30.16,29.70,7,2,14,33.09
2012-5-12,76.8,62.1,48.7,51.3,37.8,20.6,99,52,14,30.29,30.15,4,1,8,0.01
2012-5-13,82.4,63.1,41.4,42.4,35.9,27.6,93,46,14,30.22,29.96,6,1,97,33.10
2012-5-14,93.6,73.7,52.3,51.8,42.2,32.7,69,37,12,29.97,29.69,5,1,10,0.00
2012-5-15,78.1,68.6,58.1,46.1,38.6,30.9,61,35,21,29.99,29.69,8,2,14,33.10
2012-5-16,78.8,63.0,44.8,42.8,34.6,26.9,79,40,16,30.10,29.92,3,1,8,0.00
2012-5-17,87.3,70.3,56.1,47.9,43.0,36.6,57,39,23,29.94,29.62,66,2,66,0.00
2012-5-18,98.1,82.0,66.2,59.1,51.1,41.3,55,36,18,29.69,29.55,6,2,17,0.00
2012-5-19,91.8,78.9,64.0,66.5,58.7,52.3,96,52,35,29.76,29.60,8,2,16,0.23
2012-5-20,64.9,59.5,53.4,62.7,52.4,41.9,99,81,43,30.05,29.71,8,2,16,0.02
2012-5-21,77.5,71.4,62.2,53.1,40.8,36.5,70,36,23,30.16,30.04,2,1,3,0.00
2012-5-22,91.4,81.0,74.8,49.5,41.7,36.8,38,25,20,30.11,29.55,4,2,9,0.00
2012-5-23,91.4,74.5,64.6,67.1,53.8,47.1,99,52,29,29.58,29.23,8,2,18,0.74
2012-5-24,64.8,62.1,56.8,64.5,59.9,52.5,99,93,74,29.61,29.22,7,1,14,36.33
2012-5-25,74.8,64.2,51.1,56.3,51.1,44.8,98,65,40,30.02,29.61,4,1,7,0.00
2012-5-26,65.3,61.0,-31.4,62.8,58.1,-30.1,99,90,76,30.19,29.77,6,1,11,36.79
2012-5-27,97.2,78.2,62.8,72.6,67.1,61.6,99,73,41,29.78,29.43,8,2,14,0.48
2012-5-28,85.6,71.9,60.3,68.6,59.1,15.4,99,68,41,29.93,29.49,97,2,98,37.46
2012-5-29,68.0,59.8,52.9,49.6,45.7,39.3,73,60,45,29.87,29.64,7,2,13,37.46
2012-5-30,68.2,57.2,47.7,46.0,41.9,39.3,92,58,35,29.96,29.85,5,2,8,0.00
2012-5-31,71.6,60.5,50.5,49.9,41.1,35.5,85,52,29,29.98,29.88,5,1,9,0.01
2012-6-1,78.8,62.8,14.9,55.5,38.1,-14.5,91,45,20,29.95,29.68,3,1,4,37.46
2012-6-2,81.5,69.1,60.1,49.6,44.1,38.8,53,42,23,29.70,29.62,7,1,9,0.00
2012-6-3,84.7,73.6,65.1,56.3,51.1,46.3,69,46,28,29.75,29.65,4,1,6,0.00
2012-6-4,91.4,76.4,58.5,61.3,56.5,52.1,91,55,29,29.84,29.73,4,1,5,0.00
2012-6-5,90.9,75.9,59.5,61.9,56.1,51.7,94,55,28,29.92,29.81,6,1,10,0.00
2012-6-6,90.1,74.2,60.6,63.6,56.7,53.1,85,58,29,29.96,29.87,6,1,11,0.01
2012-6-7,90.3,77.4,63.0,63.0,59.7,55.0,78,56,39,30.00,29.85,6,1,8,0.00
2012-6-8,95.5,80.6,70.2,68.3,60.4,57.6,68,52,33,29.87,29.61,5,1,8,0.00
2012-6-9,99.0,84.9,71.8,61.1,56.3,51.6,57,40,23,29.65,29.49,7,2,11,0.00
2012-6-10,97.3,83.1,63.9,70.2,61.8,53.9,98,52,31,29.67,29.43,7,2,17,0.60
2012-6-11,79.2,68.5,57.4,63.6,54.8,40.7,99,66,39,29.91,29.59,7,2,15,0.02
2012-6-12,75.7,62.0,51.4,48.3,43.1,37.1,78,53,28,30.09,29.91,7,2,14,0.00
2012-6-13,80.8,66.5,52.9,53.4,49.3,46.4,84,56,31,30.06,29.79,8,1,14,0.00
2012-6-14,69.1,66.0,60.4,67.5,58.8,49.5,99,79,55,29.84,29.67,8,2,17,38.77
2012-6-15,86.5,74.8,61.2,67.1,62.5,57.0,99,69,39,29.88,29.79,4,1,8,0.00
2012-6-16,88.7,73.3,62.6,71.6,64.6,53.8,99,76,48,29.87,29.65,6,1,11,0.12
2012-6-17,86.0,69.4,56.5,67.1,57.5,51.5,97,69,32,29.88,29.35,4,1,11,39.12
2012-6-18,98.6,81.6,66.4,77.7,65.5,54.0,99,66,24,29.54,29.30,4,1,9,0.14
2012-6-19,99.0,83.3,65.5,75.0,68.2,58.0,99,64,39,29.65,29.46,8,2,16,0.44
2012-6-20,84.7,75.6,64.2,70.5,67.4,63.3,99,77,59,29.79,29.51,8,1,11,0.15
2012-6-21,82.6,71.0,60.4,63.2,57.2,52.7,99,66,38,29.89,29.77,7,2,11,0.00
2012-6-22,88.2,74.3,58.5,63.8,56.0,49.6,97,58,29,29.93,29.82,5,1,9,0.02
2012-6-23,85.1,74.2,65.3,63.5,60.1,56.3,80,63,44,29.87,29.76,7,1,10,0.00
2012-6-24,89.6,77.8,66.4,70.0,63.8,51.1,95,65,41,30.00,29.80,8,2,11,0.00
2012-6-25,85.6,72.3,58.6,54.3,49.7,44.9,73,47,28,30.09,29.92,7,1,13,0.00
2012-6-26,87.6,73.1,59.5,57.2,52.6,48.1,82,52,27,29.97,29.63,8,2,13,0.00
2012-6-27,100.6,84.8,69.3,75.0,65.5,56.8,72,54,39,29.64,29.48,8,1,9,0.00
2012-6-28,94.5,82.4,67.1,74.2,60.2,50.0,81,51,25,29.86,29.59,8,1,13,0.00
2012-6-29,97.3,81.5,61.0,65.2,60.1,50.4,93,54,21,29.81,29.64,3,0,23,40.52
2012-6-30,97.9,83.5,67.6,70.2,63.5,57.7,95,56,27,29.78,29.67,6,1,9,0.01
2012-7-1,100.4,86.0,71.2,73.1,68.9,65.2,87,59,38,29.81,29.70,7,1,11,0.00
2012-7-2,104.7,90.4,74.5,76.4,72.7,60.5,96,60,35,29.75,29.60,5,1,9,40.52
2012-7-3,102.0,87.7,68.9,77.0,72.3,64.9,98,63,42,29.79,29.56,8,1,16,0.07
2012-7-4,106.5,93.0,81.0,79.2,75.3,71.2,90,60,34,29.66,29.57,5,1,11,0.00
2012-7-5,99.7,89.0,79.5,76.5,71.3,63.6,84,58,32,29.83,29.66,8,1,14,0.00
2012-7-6,106.5,87.6,68.4,79.9,70.2,63.1,97,60,32,29.92,29.67,7,2,11,0.31
2012-7-7,90.1,76.8,64.4,67.1,60.8,50.7,99,62,34,30.03,29.91,8,2,13,0.00
2012-7-8,95.4,83.1,69.8,67.6,62.4,58.4,80,52,31,30.06,29.93,5,1,10,0.00
2012-7-9,90.9,80.3,68.0,66.2,56.2,48.1,74,47,26,30.03,29.97,6,1,11,0.00
2012-7-10,93.9,80.1,63.7,65.2,54.6,43.3,87,47,20,30.08,29.96,8,1,14,0.00
2012-7-11,96.1,81.0,62.1,62.1,57.8,50.4,84,49,25,30.07,29.91,6,1,8,0.00
2012-7-12,97.0,81.2,64.9,65.8,61.8,57.0,87,55,31,29.95,29.83,8,1,12,0.00
2012-7-13,95.2,77.0,68.4,70.4,67.8,64.2,95,75,41,29.89,29.77,5,1,11,0.55
2012-7-14,97.3,82.0,66.6,73.2,67.6,62.4,99,67,37,29.90,29.81,4,1,6,0.00
2012-7-15,99.5,85.3,70.9,74.8,68.9,63.9,95,62,34,29.93,29.81,4,0,8,0.00
2012-7-16,102.2,89.3,77.2,71.3,67.9,63.0,79,53,30,29.82,29.57,10,2,12,0.00
2012-7-17,100.0,85.0,76.1,75.0,72.5,69.5,84,68,43,29.78,29.62,6,1,10,0.00
2012-7-18,87.3,76.1,70.3,72.9,70.6,68.7,98,84,59,29.84,29.71,8,2,11,0.24
2012-7-19,90.1,77.2,68.7,69.3,67.5,64.4,95,74,44,29.95,29.83,6,1,8,0.00
2012-7-20,95.4,79.5,67.8,70.7,65.8,61.2,86,65,41,30.03,29.87,5,1,8,0.01
2012-7-21,95.0,80.3,70.2,73.3,70.2,66.9,98,74,42,29.99,29.84,4,1,7,0.35
2012-7-22,96.3,84.0,75.0,75.8,71.7,67.8,91,69,43,29.89,29.72,4,1,7,0.00
2012-7-23,103.5,87.7,75.6,76.4,69.6,55.6,97,61,24,29.83,29.76,5,1,8,42.05
2012-7-24,85.6,76.6,70.5,73.8,71.3,68.2,98,85,66,29.88,29.68,113,1,113,43.28
2012-7-25,99.3,84.2,75.2,75.7,72.7,9.4,93,71,40,29.68,29.42,4,1,115,43.29
2012-7-26,90.1,78.9,68.7,74.5,62.4,56.7,95,60,35,29.73,29.52,6,2,98,43.29
2012-7-27,84.6,73.0,63.7,63.6,60.7,57.0,94,68,42,30.01,29.73,6,1,11,0.00
2012-7-28,91.4,77.2,61.0,69.4,63.0,59.9,99,66,39,30.05,29.88,6,1,9,0.00
2012-7-29,91.4,76.9,66.9,71.8,68.3,65.7,99,77,45,29.95,29.80,4,1,6,0.38
2012-7-30,94.6,81.3,69.1,72.4,66.3,59.2,94,65,32,29.85,29.73,5,1,10,43.67
2012-7-31,94.6,80.8,65.8,68.7,62.7,56.0,95,59,31,29.91,29.81,4,1,6,0.00
2012-8-1,97.3,81.2,67.8,74.4,67.0,60.5,87,64,42,29.85,29.64,6,1,11,0.00
2012-8-2,96.3,84.2,70.5,68.6,63.7,59.6,82,53,31,29.77,29.68,4,1,8,0.00
2012-8-3,95.9,82.2,66.2,70.4,65.1,63.0,95,60,35,29.79,29.62,6,1,12,0.29
2012-8-4,84.4,72.2,65.1,67.3,62.1,55.7,99,74,41,29.84,29.66,6,1,9,44.12
2012-8-5,83.5,71.1,58.1,58.3,53.4,44.9,87,57,28,30.08,29.84,8,2,15,44.12
2012-8-6,95.0,76.3,57.9,67.6,59.9,55.1,93,62,30,30.04,29.81,4,1,7,0.00
2012-8-7,92.8,80.3,69.1,68.7,59.7,49.2,97,56,24,29.90,29.81,4,1,8,0.00
2012-8-8,86.0,72.0,65.3,65.4,62.2,57.6,92,73,43,29.92,29.80,7,1,10,0.04
2012-8-9,80.8,68.5,60.3,66.5,59.5,54.2,99,76,42,30.02,29.85,7,2,12,0.17
2012-8-10,88.7,69.2,56.8,58.5,53.2,48.6,94,61,33,30.07,29.87,8,2,14,44.32
2012-8-11,85.8,69.9,52.3,64.2,51.9,43.8,99,59,29,30.05,29.88,3,0,5,0.00
2012-8-12,71.4,66.0,61.3,61.1,58.8,55.7,93,78,61,29.93,29.88,3,0,5,0.00
2012-8-13,86.7,72.3,56.5,64.1,58.4,53.1,99,66,35,29.95,29.82,6,1,10,0.01
2012-8-14,85.6,71.5,58.6,63.6,55.8,48.3,89,61,32,29.90,29.77,5,0,8,0.00
2012-8-15,89.1,75.2,63.7,70.8,63.7,56.3,99,70,43,29.78,29.55,8,1,11,0.50
2012-8-16,74.5,66.3,56.7,68.8,54.1,47.9,87,66,42,29.94,29.63,9,3,14,0.00
2012-8-17,80.4,65.0,50.5,51.6,45.7,39.5,85,54,24,30.02,29.92,4,1,8,0.00
2012-8-18,85.1,69.2,52.9,59.1,51.5,46.0,95,59,29,29.96,29.82,4,1,6,0.02
2012-8-19,82.8,68.4,55.4,62.6,51.3,35.4,98,61,20,29.94,29.84,5,1,11,0.02
2012-8-20,83.3,67.1,48.4,57.9,46.3,36.0,96,55,20,29.96,29.86,4,0,6,0.00
2012-8-21,87.1,70.4,51.8,59.5,50.6,45.0,98,56,24,30.00,29.83,3,0,7,44.87
2012-8-22,86.7,69.0,55.8,64.7,57.9,52.3,91,70,36,29.92,29.77,4,1,8,0.03
2012-8-23,90.3,78.0,68.9,67.7,63.0,57.6,88,61,43,29.79,29.64,8,1,15,0.06
2012-8-24,95.5,81.7,66.9,71.3,66.4,60.4,88,62,44,29.75,29.65,5,1,11,0.00
2012-8-25,78.6,72.3,66.6,69.3,65.8,62.7,91,81,59,29.85,29.75,4,0,7,0.05
2012-8-26,91.6,76.2,66.0,69.8,64.7,56.7,97,72,33,29.94,29.83,3,0,4,0.00
2012-8-27,91.8,76.0,58.8,65.5,59.2,53.7,99,62,29,30.03,29.94,4,1,8,0.00
2012-8-28,90.7,75.6,63.7,69.0,63.9,59.3,88,69,47,30.03,29.85,7,1,11,0.00
2012-8-29,98.4,82.6,68.5,67.5,64.5,60.5,90,58,30,29.88,29.63,7,1,11,0.00
2012-8-30,96.8,83.6,74.1,68.0,62.8,56.7,73,51,28,29.81,29.60,8,2,11,0.00
2012-8-31,90.3,76.6,62.4,61.0,51.6,41.8,81,46,19,30.01,29.81,5,1,10,0.00
2012-9-1,90.1,75.6,62.4,55.0,49.8,43.1,66,42,23,30.04,29.89,5,1,9,0.00
2012-9-2,93.2,77.0,59.0,69.7,61.9,53.2,88,62,43,29.93,29.69,6,1,11,0.00
2012-9-3,98.8,82.5,69.6,70.1,60.8,45.8,86,53,19,29.79,29.70,4,1,8,0.00
2012-9-4,95.5,78.3,68.5,66.9,60.2,44.8,77,58,23,29.78,29.62,5,1,8,0.00
2012-9-5,88.2,74.0,61.0,63.0,53.1,41.4,91,52,26,29.81,29.58,8,1,11,0.02
2012-9-6,86.9,70.0,54.5,61.0,51.9,44.2,92,58,23,29.89,29.73,4,1,8,0.00
2012-9-7,73.6,64.7,57.4,59.1,50.7,42.4,87,63,36,29.95,29.78,8,2,12,0.00
2012-9-8,80.6,64.2,50.0,53.0,47.3,41.7,93,58,29,29.96,29.68,9,2,45,45.02
2012-9-9,85.5,64.5,52.3,55.6,49.9,45.6,98,63,30,30.10,29.68,6,1,11,0.00
2012-9-10,87.6,70.6,51.4,53.4,48.3,43.7,87,51,23,30.02,29.70,8,2,11,0.00
2012-9-11,99.9,81.4,66.6,56.0,51.4,-99.9,62,39,1,29.73,29.54,7,2,14,0.00
2012-9-12,80.1,62.3,54.7,56.6,51.8,45.1,93,71,38,30.17,29.70,4,1,8,0.08
2012-9-13,80.6,63.9,52.2,58.3,42.1,23.6,99,56,14,30.25,30.13,4,1,8,0.01
2012-9-14,82.0,64.6,46.4,46.6,38.7,31.7,80,43,17,30.26,30.15,5,1,8,0.00
2012-9-15,89.6,68.9,49.5,51.7,44.1,38.2,86,46,18,30.17,29.85,7,1,10,0.00
2012-9-16,85.1,71.7,62.1,56.8,51.3,41.0,75,50,34,29.86,29.73,5,2,11,0.00
2012-9-17,66.6,57.3,50.9,52.3,43.2,32.4,98,62,32,29.93,29.80,6,2,11,0.23
2012-9-18,66.4,53.8,43.2,41.8,34.9,24.7,85,53,23,29.97,29.71,7,1,10,45.34
2012-9-19,78.3,60.9,52.9,50.4,40.8,33.0,76,49,26,29.79,29.53,6,2,17,0.01
2012-9-20,69.3,58.6,49.8,45.0,37.4,29.3,74,48,23,29.83,29.75,8,2,14,0.00
2012-9-21,65.1,54.8,43.3,48.2,42.3,35.1,83,64,42,29.83,29.71,8,1,16,0.01
2012-9-22,63.1,49.1,40.5,41.5,33.8,24.3,85,58,26,30.20,29.83,7,2,12,0.00
2012-9-23,65.7,48.6,34.0,40.1,31.1,23.5,93,57,21,30.26,30.10,5,1,13,45.36
2012-9-24,80.8,58.7,40.1,42.4,35.0,29.4,72,45,19,30.10,29.62,6,1,10,0.00
2012-9-25,72.7,57.4,43.5,45.4,39.0,30.7,84,54,22,29.89,29.67,6,1,10,0.00
2012-9-26,69.6,52.7,38.7,45.5,37.3,30.8,94,61,25,30.16,29.84,7,1,11,0.00
2012-9-27,74.8,53.7,36.5,47.4,37.6,31.3,99,62,22,30.23,30.07,4,0,5,0.00
2012-9-28,81.7,60.1,41.0,53.7,41.5,33.2,99,59,18,30.16,29.98,3,0,4,0.00
2012-9-29,87.6,65.0,45.7,50.3,43.8,39.2,88,52,22,30.05,29.88,4,0,8,0.00
2012-9-30,81.7,63.4,46.2,48.4,42.0,35.0,89,52,19,29.96,29.78,3,0,4,0.00
2012-10-1,74.1,62.4,53.2,50.3,43.7,37.8,71,51,33,29.87,29.73,6,2,11,45.36
2012-10-2,78.4,60.6,40.8,48.7,40.0,33.8,91,51,22,29.92,29.72,4,1,5,0.00
2012-10-3,82.9,67.4,54.1,52.0,41.8,33.6,89,43,19,29.83,29.70,7,1,10,0.00
2012-10-4,64.4,50.3,42.8,45.9,36.6,29.8,80,60,40,30.09,29.66,9,4,17,0.00
2012-10-5,50.0,42.4,36.1,32.4,28.2,26.1,74,57,41,30.10,30.02,10,3,17,0.00
2012-10-6,45.7,39.5,33.3,32.9,26.5,20.9,79,61,39,30.23,30.08,7,2,12,0.00
2012-10-7,58.3,41.2,26.6,28.0,21.9,13.5,87,52,20,30.18,29.82,8,1,11,0.00
2012-10-8,64.2,50.9,37.4,41.9,32.5,24.6,66,50,30,29.82,29.48,6,1,11,0.00
2012-10-9,54.0,46.9,38.7,42.9,34.4,25.7,93,63,39,29.92,29.64,8,2,15,0.01
2012-10-10,55.4,45.0,31.6,32.8,26.5,22.9,81,50,30,30.03,29.76,4,1,7,0.00
2012-10-11,54.7,46.2,32.4,35.8,25.0,8.2,80,46,20,30.36,29.70,8,2,11,0.00
2012-10-12,57.4,42.2,24.8,32.5,18.6,11.9,83,44,18,30.42,29.97,5,1,10,0.00
2012-10-13,54.0,50.6,48.2,53.1,46.3,19.6,99,87,32,29.97,29.59,4,1,10,0.03
2012-10-14,61.9,51.7,45.3,50.4,41.5,30.3,99,73,31,29.80,29.64,7,2,16,0.01
2012-10-15,67.8,53.9,36.5,42.8,37.2,32.2,92,56,32,29.88,29.64,3,0,5,0.00
2012-10-16,72.0,59.4,50.5,50.8,46.8,41.4,92,64,45,29.64,29.28,5,1,8,0.00
2012-10-17,63.1,54.2,48.2,52.7,47.2,41.4,98,78,52,29.28,29.03,8,2,14,0.00
2012-10-18,51.8,46.6,43.7,44.9,43.3,41.9,98,89,74,29.31,29.09,2,0,6,0.00
2012-10-19,54.1,47.1,38.5,51.2,44.2,37.4,99,91,64,29.67,29.31,6,1,10,0.13
2012-10-20,61.0,45.6,33.8,47.6,41.2,33.3,99,86,53,29.75,29.67,4,1,9,0.00
2012-10-21,75.6,55.9,42.3,52.9,46.6,41.7,99,74,39,29.80,29.64,6,1,12,0.00
2012-10-22,64.9,56.9,50.0,53.6,47.5,44.8,92,72,53,29.87,29.78,8,2,12,0.00
2012-10-23,64.6,58.7,55.2,62.2,57.1,53.5,99,94,82,29.78,29.58,5,1,8,0.22
2012-10-24,60.8,55.5,48.4,58.2,54.4,46.9,99,96,83,29.77,29.65,8,2,11,0.11
2012-10-25,48.0,39.8,35.2,46.9,36.2,26.4,99,88,62,30.09,29.62,8,4,17,0.74
2012-10-26,40.8,37.2,31.1,27.4,24.6,22.0,74,61,49,30.31,30.09,6,2,13,0.00
2012-10-27,49.3,36.3,26.4,32.2,23.7,18.1,93,63,31,30.32,30.23,4,1,7,0.00
2012-10-28,52.0,36.6,25.9,29.6,23.4,20.6,87,61,32,30.32,30.20,4,0,9,0.00
2012-10-29,46.4,37.8,28.8,29.7,24.6,20.9,73,59,49,30.28,30.19,4,1,7,0.00
2012-10-30,53.8,38.9,27.5,32.3,23.3,10.1,82,56,30,30.21,30.00,6,2,13,0.00
2012-10-31,55.9,39.6,24.3,31.2,19.4,12.4,68,47,19,30.05,29.85,4,1,8,0.00
2012-11-1,50.4,41.5,30.9,36.2,27.6,20.9,81,58,38,30.01,29.85,7,2,12,0.00
2012-11-2,41.5,35.2,26.1,28.4,24.6,20.2,85,66,54,30.11,30.01,4,1,8,0.00
2012-11-3,41.5,38.7,37.4,29.6,27.1,25.6,65,63,58,30.17,30.09,2,0,5,0.00
2012-11-4,44.4,39.3,28.0,38.1,32.7,24.4,93,78,65,30.19,30.07,4,1,5,0.01
2012-11-5,44.1,41.6,37.8,38.5,35.8,32.8,96,80,69,30.14,29.87,4,1,8,46.62
2012-11-6,45.9,41.3,39.0,41.3,37.7,33.9,99,87,69,29.92,29.68,7,2,14,0.30
2012-11-7,51.8,41.6,37.2,37.9,34.5,31.0,88,76,55,30.06,29.91,4,0,7,0.00
2012-11-8,59.7,43.7,34.7,38.9,34.5,29.3,85,71,45,30.01,29.82,6,1,11,0.00
2012-11-9,56.3,45.5,36.1,41.3,37.9,33.2,94,76,56,30.00,29.85,7,3,12,0.00
2012-11-10,72.9,55.1,44.6,59.0,50.3,40.5,99,85,60,29.85,29.34,8,3,15,0.30
2012-11-11,55.0,34.3,22.6,54.2,28.1,9.2,97,79,55,29.92,29.41,7,1,10,0.03
2012-11-12,28.2,23.5,19.9,16.8,12.6,8.1,82,63,52,30.25,29.91,0,0,0,0.00
2012-11-13,48.2,33.3,21.9,27.6,20.1,14.0,71,60,32,30.31,30.20,2,0,4,0.00
2012-11-14,37.4,37.4,37.4,27.5,27.5,27.5,67,67,67,30.23,30.23,0,0,2,0.00
2012-11-15,37.4,37.4,37.4,27.5,27.5,27.5,67,67,67,30.23,30.23,0,0,2,0.00
2012-11-16,50.0,40.3,37.4,27.5,21.8,13.4,67,50,24,30.42,30.23,3,0,5,0.00
2012-11-17,57.2,46.9,37.9,38.6,31.1,20.5,78,54,48,30.30,30.13,2,1,4,0.00
2012-11-18,57.0,55.5,47.8,38.6,37.8,34.3,61,51,50,30.13,30.00,4,2,5,0.00
2012-11-19,64.6,51.3,40.1,41.5,37.5,34.3,88,61,40,30.02,29.90,4,0,5,47.25
2012-11-20,59.4,43.1,33.8,39.0,33.7,29.8,95,72,34,30.12,29.99,3,0,8,0.00
2012-11-21,65.7,52.7,38.7,44.6,38.4,32.3,80,60,39,30.00,29.59,4,1,13,0.00
2012-11-22,59.7,45.5,23.9,45.3,35.9,15.1,91,70,52,29.95,29.51,8,3,19,0.01
2012-11-23,26.6,21.6,15.1,17.0,11.0,5.1,82,64,51,30.35,29.95,9,4,17,0.00
2012-11-24,29.7,21.4,9.9,17.2,9.6,2.1,75,61,47,30.35,29.76,3,1,8,0.00
2012-11-25,30.7,29.2,24.3,21.9,19.2,4.9,72,66,45,30.13,29.75,6,2,11,0.00
2012-11-26,23.5,16.5,9.9,5.0,1.9,-1.4,63,52,36,30.40,30.13,6,1,10,0.00
2012-11-27,38.8,26.2,15.8,25.3,13.6,2.5,74,59,47,30.33,30.01,4,1,7,0.00
2012-11-28,39.7,30.5,25.0,23.6,19.5,16.3,74,64,50,30.31,30.04,4,1,10,0.00
2012-11-29,42.8,32.3,21.9,26.2,22.2,15.8,84,67,50,30.06,29.98,8,2,12,0.00
2012-11-30,36.9,33.9,30.9,30.6,26.9,23.6,86,76,70,30.13,30.01,5,2,9,0.00
2012-12-1,48.0,40.7,34.5,43.7,37.3,30.6,93,87,82,30.02,29.63,4,1,9,0.00
2012-12-2,40.3,35.3,28.8,39.2,33.5,26.7,97,93,89,29.95,29.72,5,1,10,0.00
2012-12-3,56.7,49.4,39.4,53.7,45.6,38.1,98,88,63,29.73,29.45,8,2,17,0.03
2012-12-5,40.1,39.0,38.3,24.2,21.7,19.4,53,50,46,29.89,29.80,4,2,8,0.01
2012-12-6,47.5,41.0,27.9,36.6,28.0,16.2,76,60,51,29.97,29.69,6,2,14,0.00
2012-12-7,32.4,27.9,21.2,24.5,20.2,13.6,84,73,59,30.01,29.95,4,1,6,0.00
2012-12-8,38.5,30.3,25.5,27.4,22.1,19.1,80,72,58,30.01,29.94,4,1,8,0.00
2012-12-9,32.5,29.5,19.2,29.5,26.3,13.8,91,88,67,29.97,29.77,4,1,8,0.00
2012-12-10,26.2,11.8,2.7,13.4,2.1,-6.6,79,64,46,29.95,29.84,3,0,4,0.00
2012-12-11,21.2,14.0,5.2,11.0,5.1,-4.2,73,67,60,30.01,29.78,2,0,4,0.00
2012-12-12,47.1,30.1,8.2,27.8,19.3,0.2,80,65,42,30.01,29.76,5,1,10,0.06
2012-12-13,42.6,32.2,24.8,23.8,19.0,13.8,73,59,44,30.09,29.86,3,0,5,0.00
2012-12-14,38.5,29.3,18.9,24.0,19.3,12.0,81,67,52,30.10,29.84,5,1,8,0.00
2012-12-15,38.7,36.8,34.5,34.3,31.7,22.1,89,82,60,29.84,29.43,5,1,8,0.39
2012-12-16,36.7,30.4,19.6,33.7,26.3,13.6,89,85,77,29.79,29.45,0,0,0,0.07
2012-12-17,29.3,23.7,20.3,21.2,16.9,14.6,82,75,63,29.79,29.65,0,0,0,0.00
2012-12-18,29.7,25.6,23.7,21.9,18.4,16.7,77,73,68,29.78,29.61,0,0,0,0.00
2012-12-19,40.8,30.4,27.1,28.7,23.5,15.1,84,76,58,29.99,29.78,2,0,4,0.01
2012-12-20,27.1,22.1,12.7,17.0,13.2,2.6,79,68,60,30.05,29.80,8,3,17,0.00
2012-12-21,25.2,15.0,8.1,4.8,1.3,-2.5,64,54,40,30.25,30.05,5,1,10,0.00
2012-12-22,34.9,18.9,9.0,14.1,5.5,-2.0,69,56,39,30.19,29.90,7,1,10,0.00
2012-12-23,22.6,15.8,10.0,10.2,1.9,-99.9,70,56,45,30.14,30.01,6,2,11,0.00
2012-12-24,35.2,14.1,5.5,-2.8,-62.2,-99.9,53,18,35,30.30,29.87,5,1,8,47.83
2012-12-25,17.8,6.0,-0.9,-3.2,-7.9,-12.2,59,50,35,30.50,30.29,4,1,7,0.00
2012-12-26,22.8,11.3,3.9,1.7,-4.2,-8.5,55,48,33,30.43,30.24,4,1,6,0.00
2012-12-27,23.2,16.0,7.7,13.4,5.7,-5.1,76,63,50,30.26,30.12,4,0,5,0.00
2012-12-28,28.6,20.8,15.6,16.9,12.0,7.9,76,68,54,30.13,29.96,4,1,6,0.00
2012-12-29,22.3,14.4,5.7,7.9,4.1,-4.0,71,63,51,30.17,30.01,4,1,8,0.00
2012-12-30,23.2,12.7,5.7,12.4,2.9,-4.0,73,63,53,30.17,29.86,3,0,7,47.83
2012-12-31,19.6,13.4,0.5,12.4,0.3,-13.1,73,56,29,30.28,29.89,4,2,8,0.00
2013-1-1,19.8,6.4,-5.6,12.2,-4.9,-15.5,72,57,43,30.31,30.00,4,1,11,47.83